WMSA

Sultan Abdul Aziz Shah International Airport

Subang, Malaysia
TAF WMSA 192300Z 2000/2100 31007KT 9999 FEW018 TEMPO 2005/2009 5000 TSRA FEW010 FEW017CB SCT020 BECMG 2012/2014 VRB03KT 9000 FEW030
Issued Valid From Valid To
Oct-19 @ 23:00 UTC
(3 hours ago)
Oct-20 @ 00:00 UTC
(2 hours ago)
Oct-21 @ 00:00 UTC
(in 22 hours)
Oct-20 @ 00:00 to Oct-20 @ 12:00
TAF WMSA 192300Z 2000/2100 31007KT 9999 FEW018
Wind Visibility Clouds
310° at 7 knots 10,000+ meters
  • Few at 1,800' AGL
Temporary Oct-20 @ 05:00 to Oct-20 @ 09:00
TEMPO 2005/2009 5000 TSRA FEW010 FEW017CB SCT020
Visibility Clouds Conditions
5,005 meters
  • Few at 1,000' AGL
  • Few at 1,700' AGL
  • Scattered at 2,000' AGL
  • Thunderstorm
  • Rain
Becoming Oct-20 @ 12:00 to Oct-21 @ 00:00
BECMG 2012/2014 VRB03KT 9000 FEW030
Wind Visibility Clouds
Variable at 3 knots 8,996 meters
  • Few at 3,000' AGL
TAF WMSA 192300Z 2000/2100 31007KT 9999 FEW018 TEMPO 2005/2009 5000 TSRA FEW010 FEW017CB SCT020 BECMG 2012/2014 VRB03KT 9000 FEW030
Issued Oct-19 @ 23:00 UTC
(3 hours ago)
Valid From Oct-20 @ 00:00 UTC
(2 hours ago)
Valid To Oct-21 @ 00:00 UTC
(in 22 hours)
Oct-20 @ 00:00 - Oct-20 @ 12:00
Wind Visibility
310° at 7 knots 10,000+ meters
Clouds
  • Few at 1,800' AGL
Temporary Oct-20 @ 05:00 - Oct-20 @ 09:00
Clouds
  • Few at 1,000' AGL
  • Few at 1,700' AGL
  • Scattered at 2,000' AGL
Conditions
  • Thunderstorm
  • Rain
Becoming Oct-20 @ 12:00 - Oct-21 @ 00:00
Wind Visibility
Variable at 3 knots 8,996 meters
Clouds
  • Few at 3,000' AGL